createdAt,value
2022-08-23T00:02:11.493Z,5.40
2022-08-23T00:05:07.813Z,8.20
2022-08-23T00:07:41.795Z,7.10
2022-08-23T00:10:12.784Z,5.70
2022-08-23T00:12:42.407Z,6.60
2022-08-23T00:15:13.915Z,6.90
2022-08-23T00:17:42.480Z,4.80
2022-08-23T00:20:13.645Z,4.30
2022-08-23T00:22:41.954Z,4.70
2022-08-23T00:25:13.467Z,5.60
2022-08-23T00:27:41.659Z,5.00
2022-08-23T00:30:12.633Z,4.50
2022-08-23T00:32:41.825Z,7.60
2022-08-23T00:35:12.107Z,8.20
2022-08-23T00:37:40.605Z,6.30
2022-08-23T00:40:11.478Z,4.50
2022-08-23T00:43:32.751Z,5.20
2022-08-23T00:46:41.348Z,5.90
2022-08-23T00:49:12.892Z,4.40
2022-08-23T00:52:09.017Z,9.60
2022-08-23T00:54:39.753Z,4.60
2022-08-23T00:57:14.806Z,7.20
2022-08-23T00:59:42.824Z,6.30
2022-08-23T01:02:11.472Z,4.90
2022-08-23T01:04:50.441Z,4.70
2022-08-23T01:07:23.891Z,8.20
2022-08-23T01:09:57.711Z,5.50
2022-08-23T01:12:35.949Z,6.10
2022-08-23T01:15:16.581Z,5.80
2022-08-23T01:18:07.345Z,5.30
2022-08-23T01:21:05.819Z,4.60
2022-08-23T01:23:46.253Z,8.30
2022-08-23T01:26:21.744Z,5.20
2022-08-23T01:28:52.803Z,4.00
2022-08-23T01:31:23.977Z,5.80
2022-08-23T01:33:58.935Z,8.90
2022-08-23T01:36:27.684Z,7.70
2022-08-23T01:38:57.348Z,4.70
2022-08-23T01:41:25.578Z,6.90
2022-08-23T01:43:53.818Z,3.70
2022-08-23T01:46:26.836Z,6.20
2022-08-23T01:48:55.958Z,4.80
2022-08-23T01:51:25.488Z,4.80
2022-08-23T01:53:53.881Z,7.00
2022-08-23T01:56:38.239Z,4.10
2022-08-23T01:59:11.344Z,4.50
2022-08-23T02:01:45.842Z,5.80
2022-08-23T02:04:14.223Z,9.90
2022-08-23T02:06:42.811Z,5.10
2022-08-23T02:09:17.141Z,5.10
2022-08-23T02:11:47.489Z,6.40
2022-08-23T02:14:19.817Z,11.00
2022-08-23T02:17:03.921Z,6.10
2022-08-23T02:19:38.098Z,8.20
2022-08-23T02:22:09.083Z,7.00
2022-08-23T02:24:42.326Z,6.80
2022-08-23T02:27:12.301Z,6.60
2022-08-23T02:29:44.032Z,6.40
2022-08-23T02:32:15.357Z,7.80
2022-08-23T02:34:43.954Z,6.40
2022-08-23T02:37:14.303Z,11.80
2022-08-23T02:39:43.544Z,7.90
2022-08-23T02:42:12.519Z,8.00
2022-08-23T02:44:42.827Z,12.70
2022-08-23T02:47:12.479Z,8.30
2022-08-23T02:49:43.427Z,7.00
2022-08-23T02:52:11.594Z,12.80
2022-08-23T02:54:40.445Z,8.70
2022-08-23T02:57:09.245Z,10.50
2022-08-23T02:59:37.400Z,8.30
2022-08-23T03:02:07.117Z,8.20
2022-08-23T03:04:39.656Z,16.50
2022-08-23T03:07:07.726Z,8.00
2022-08-23T03:09:37.304Z,13.30
2022-08-23T03:12:05.582Z,21.60
2022-08-23T03:14:35.393Z,39.60
2022-08-23T03:17:08.132Z,22.80
2022-08-23T03:19:36.699Z,21.30
2022-08-23T03:22:05.055Z,12.90
2022-08-23T03:24:33.154Z,14.80
2022-08-23T03:27:01.313Z,14.40
2022-08-23T03:29:29.488Z,14.00
2022-08-23T03:32:04.504Z,14.30
2022-08-23T03:34:36.891Z,16.40
2022-08-23T03:37:06.390Z,48.60
2022-08-23T03:39:34.832Z,60.20
2022-08-23T03:42:03.853Z,49.00
2022-08-23T03:44:34.420Z,29.00
2022-08-23T03:47:03.314Z,20.30
2022-08-23T03:49:32.146Z,14.70
2022-08-23T03:52:01.159Z,18.30
2022-08-23T03:54:32.343Z,15.50
2022-08-23T03:57:04.156Z,15.10
2022-08-23T03:59:40.349Z,15.50
2022-08-23T04:02:11.317Z,15.40
2022-08-23T04:04:39.990Z,16.20
2022-08-23T04:07:39.056Z,19.60
2022-08-23T04:10:09.609Z,23.60
2022-08-23T04:12:38.468Z,43.20
2022-08-23T04:15:10.270Z,79.90
2022-08-23T04:17:40.622Z,32.20
2022-08-23T04:20:09.336Z,26.70
2022-08-23T04:22:44.611Z,10.60
2022-08-23T04:25:34.846Z,22.90
2022-08-23T04:28:05.596Z,25.90
2022-08-23T04:30:33.909Z,10.30
2022-08-23T04:33:02.491Z,15.20
2022-08-23T04:35:32.666Z,11.10
2022-08-23T04:38:01.841Z,10.50
2022-08-23T04:40:49.371Z,16.20
2022-08-23T04:43:17.876Z,10.80
2022-08-23T04:45:47.211Z,10.00
2022-08-23T04:48:25.645Z,10.80
2022-08-23T04:50:54.555Z,14.60
2022-08-23T04:53:23.479Z,15.40
2022-08-23T04:56:00.463Z,15.80
2022-08-23T04:58:33.083Z,13.80
2022-08-23T05:01:02.971Z,15.70
2022-08-23T05:03:35.018Z,14.20
2022-08-23T05:06:05.280Z,13.90
2022-08-23T05:08:40.976Z,13.60
2022-08-23T05:11:11.755Z,14.90
2022-08-23T05:13:41.725Z,18.70
2022-08-23T05:16:11.357Z,21.60
2022-08-23T05:18:44.804Z,23.10
2022-08-23T05:21:23.479Z,17.40
2022-08-23T05:23:54.759Z,26.50
2022-08-23T05:26:24.918Z,23.50
2022-08-23T05:28:53.015Z,20.80
2022-08-23T05:31:27.797Z,26.00
2022-08-23T05:33:59.604Z,27.10
2022-08-23T05:36:37.848Z,24.40
2022-08-23T05:39:24.242Z,31.50
2022-08-23T05:42:01.502Z,34.50
2022-08-23T05:44:29.912Z,30.30
2022-08-23T05:47:10.793Z,27.90
2022-08-23T05:50:06.399Z,29.50
2022-08-23T05:52:37.150Z,34.90
2022-08-23T05:55:07.086Z,32.60
2022-08-23T05:57:39.022Z,31.60
2022-08-23T06:00:13.868Z,30.80
2022-08-23T06:02:49.625Z,36.60
2022-08-23T06:05:20.732Z,33.90
2022-08-23T06:07:51.671Z,37.60
2022-08-23T06:10:22.314Z,37.30
2022-08-23T06:12:56.401Z,31.20
2022-08-23T06:15:24.543Z,41.50
2022-08-23T06:17:52.952Z,41.10
2022-08-23T06:20:21.698Z,31.70
2022-08-23T06:23:07.740Z,50.10
2022-08-23T06:25:38.378Z,40.70
2022-08-23T06:28:15.013Z,43.90
2022-08-23T06:30:43.960Z,44.60
2022-08-23T06:33:15.210Z,35.00
2022-08-23T06:36:13.816Z,44.70
2022-08-23T06:39:10.537Z,37.10
2022-08-23T06:42:10.122Z,41.20
2022-08-23T06:44:46.885Z,37.40
2022-08-23T06:47:34.863Z,37.00
2022-08-23T06:50:04.839Z,34.30
2022-08-23T06:52:55.960Z,34.70
2022-08-23T06:55:41.823Z,31.00
2022-08-23T06:58:19.558Z,34.40
2022-08-23T07:01:44.604Z,31.60
2022-08-23T07:04:35.747Z,33.60
2022-08-23T07:07:39.621Z,37.00
2022-08-23T07:10:15.402Z,31.80
2022-08-23T07:12:44.748Z,35.60
2022-08-23T07:15:14.584Z,36.40
2022-08-23T07:17:45.708Z,33.10
2022-08-23T07:20:13.989Z,29.90
2022-08-23T07:22:44.818Z,36.90
2022-08-23T07:25:13.770Z,34.00
2022-08-23T07:27:45.907Z,41.80
2022-08-23T07:30:16.747Z,31.90
2022-08-23T07:32:46.515Z,33.90
2022-08-23T07:35:34.657Z,34.40
2022-08-23T07:38:06.487Z,37.40
2022-08-23T07:40:39.162Z,33.00
2022-08-23T07:43:09.725Z,32.20
2022-08-23T07:45:42.571Z,41.60
2022-08-23T07:48:14.462Z,43.30
2022-08-23T07:51:12.237Z,40.20
2022-08-23T07:53:45.491Z,29.70
2022-08-23T07:56:18.449Z,31.30
2022-08-23T07:59:07.267Z,32.90
2022-08-23T08:01:41.474Z,29.30
2022-08-23T08:04:10.603Z,29.00
2022-08-23T08:06:44.098Z,29.40
2022-08-23T08:09:14.791Z,27.70
2022-08-23T08:11:47.567Z,31.40
2022-08-23T08:14:17.687Z,34.10
2022-08-23T08:16:52.900Z,28.80
2022-08-23T08:19:37.483Z,28.60
2022-08-23T08:22:25.589Z,28.90
2022-08-23T08:25:23.752Z,24.60
2022-08-23T08:27:52.307Z,28.90
2022-08-23T08:30:20.588Z,29.60
2022-08-23T08:32:49.426Z,27.00
2022-08-23T08:35:18.217Z,26.50
2022-08-23T08:37:47.936Z,28.60
2022-08-23T08:40:26.858Z,31.20
2022-08-23T08:43:19.958Z,31.90
2022-08-23T08:46:05.285Z,23.30
2022-08-23T08:48:43.532Z,27.40
2022-08-23T08:51:58.958Z,28.90
2022-08-23T08:54:29.199Z,28.60
2022-08-23T08:57:01.576Z,25.00
2022-08-23T08:59:59.786Z,22.50
2022-08-23T09:02:34.275Z,27.90
2022-08-23T09:05:15.314Z,27.50
2022-08-23T09:07:44.363Z,26.00
2022-08-23T09:10:37.625Z,25.10
2022-08-23T09:13:32.058Z,27.30
2022-08-23T09:16:05.484Z,25.90
2022-08-23T09:18:36.774Z,28.30
2022-08-23T09:21:08.331Z,24.30
2022-08-23T09:23:44.111Z,29.40
2022-08-23T09:26:30.876Z,24.70
2022-08-23T09:29:02.618Z,23.80
2022-08-23T09:31:47.599Z,21.90
2022-08-23T09:34:37.070Z,20.90
2022-08-23T09:37:13.898Z,25.10
2022-08-23T09:40:05.271Z,18.70
2022-08-23T09:42:39.732Z,23.70
2022-08-23T09:45:35.129Z,25.60
2022-08-23T09:48:06.732Z,22.50
2022-08-23T09:50:43.480Z,24.60
2022-08-23T09:53:15.063Z,22.40
2022-08-23T09:55:52.311Z,18.00
2022-08-23T09:58:32.162Z,24.60
2022-08-23T10:01:13.874Z,17.30
2022-08-23T10:03:45.296Z,25.80
2022-08-23T10:06:31.793Z,17.70
2022-08-23T10:09:05.947Z,21.30
2022-08-23T10:11:45.330Z,25.40
2022-08-23T10:14:17.930Z,20.60
2022-08-23T10:16:53.403Z,22.40
2022-08-23T10:19:27.821Z,21.70
2022-08-23T10:22:20.962Z,21.60
2022-08-23T10:25:36.025Z,25.40
2022-08-23T10:28:35.631Z,18.70
2022-08-23T10:31:21.378Z,22.40
2022-08-23T10:34:16.274Z,21.70
2022-08-23T10:37:09.123Z,16.70
2022-08-23T10:40:00.268Z,18.80
2022-08-23T10:42:48.222Z,21.80
2022-08-23T10:45:27.544Z,16.00
2022-08-23T10:48:29.529Z,16.50
2022-08-23T10:51:04.004Z,15.50
2022-08-23T10:53:47.262Z,16.30
2022-08-23T10:56:20.993Z,22.90
2022-08-23T10:58:58.754Z,13.70
2022-08-23T11:01:45.586Z,20.40
2022-08-23T11:04:25.189Z,15.00
2022-08-23T11:07:37.533Z,14.00
2022-08-23T11:13:06.571Z,20.10
2022-08-23T11:15:45.003Z,14.20
2022-08-23T11:18:33.145Z,16.10
2022-08-23T11:21:28.651Z,16.60
2022-08-23T11:24:00.025Z,12.70
2022-08-23T11:26:31.479Z,14.90
2022-08-23T11:29:05.998Z,13.30
2022-08-23T11:31:43.344Z,14.20
2022-08-23T11:34:35.089Z,14.00
2022-08-23T11:37:19.704Z,14.10
2022-08-23T11:39:58.775Z,17.10
2022-08-23T11:42:38.485Z,15.10
2022-08-23T11:45:35.847Z,17.10
2022-08-23T11:48:16.581Z,22.60
2022-08-23T11:51:07.357Z,19.40
2022-08-23T11:53:41.623Z,14.60
2022-08-23T11:56:45.634Z,14.20
2022-08-23T11:59:30.110Z,15.30
2022-08-23T12:01:59.568Z,16.40
2022-08-23T12:04:55.622Z,14.10
2022-08-23T12:07:52.559Z,14.40
2022-08-23T12:10:43.244Z,13.70
2022-08-23T12:13:20.536Z,13.00
2022-08-23T12:16:16.836Z,13.70
2022-08-23T12:18:53.522Z,11.40
2022-08-23T12:21:27.869Z,14.20
2022-08-23T12:24:01.349Z,15.10
2022-08-23T12:26:38.734Z,15.20
2022-08-23T12:29:19.269Z,11.50
2022-08-23T12:32:00.681Z,11.90
2022-08-23T12:34:43.955Z,11.90
2022-08-23T12:37:25.790Z,12.80
2022-08-23T12:39:58.823Z,14.10
2022-08-23T12:42:34.552Z,11.80
2022-08-23T12:45:16.665Z,19.80
2022-08-23T12:47:56.804Z,17.70
2022-08-23T12:50:36.491Z,20.70
2022-08-23T12:53:09.644Z,18.90
2022-08-23T12:55:42.099Z,15.00
2022-08-23T12:58:11.272Z,17.00
2022-08-23T13:00:53.887Z,24.20
2022-08-23T13:03:34.162Z,18.40
2022-08-23T13:06:13.369Z,18.90
2022-08-23T13:08:52.505Z,17.50
2022-08-23T13:11:23.061Z,15.70
2022-08-23T13:13:51.283Z,17.40
2022-08-23T13:16:42.908Z,15.50
2022-08-23T13:19:22.466Z,15.80
2022-08-23T13:22:14.972Z,15.10
2022-08-23T13:24:46.297Z,16.60
2022-08-23T13:27:20.505Z,18.60
2022-08-23T13:30:08.882Z,17.10
2022-08-23T13:32:36.995Z,14.90
2022-08-23T13:35:38.390Z,14.80
2022-08-23T13:38:09.443Z,17.40
2022-08-23T13:41:02.372Z,16.20
2022-08-23T13:43:48.268Z,13.50
2022-08-23T13:46:27.451Z,19.10
2022-08-23T13:49:13.590Z,14.30
2022-08-23T13:52:33.390Z,15.00
2022-08-23T13:54:53.044Z,14.10
2022-08-23T13:57:22.579Z,14.10
2022-08-23T13:59:59.019Z,14.50
2022-08-23T14:02:28.828Z,14.30
2022-08-23T14:04:56.998Z,18.80
2022-08-23T14:07:25.272Z,15.30
2022-08-23T14:09:55.222Z,20.70
2022-08-23T14:12:31.253Z,14.60
2022-08-23T14:15:04.812Z,18.80
2022-08-23T14:17:40.504Z,22.20
2022-08-23T14:23:08.698Z,13.50
2022-08-23T14:25:41.194Z,18.40
2022-08-23T14:28:10.106Z,18.30
2022-08-23T14:30:38.511Z,14.50
2022-08-23T14:33:07.065Z,15.80
2022-08-23T14:35:35.239Z,15.40
2022-08-23T14:38:04.928Z,15.60
2022-08-23T14:40:36.555Z,13.80
2022-08-23T14:43:05.938Z,15.90
2022-08-23T14:45:34.108Z,15.60
2022-08-23T14:48:03.338Z,15.20
2022-08-23T14:50:31.826Z,18.50
2022-08-23T14:53:03.913Z,15.30
2022-08-23T14:55:32.345Z,19.70
2022-08-23T14:58:01.031Z,15.70
2022-08-23T15:00:31.265Z,16.60
2022-08-23T15:02:59.685Z,13.60
2022-08-23T15:05:27.918Z,19.10
2022-08-23T15:07:56.150Z,15.60
2022-08-23T15:13:21.644Z,18.20
2022-08-23T15:15:56.256Z,16.00
2022-08-23T15:18:24.694Z,16.20
2022-08-23T15:20:53.098Z,16.10
2022-08-23T15:23:21.526Z,20.50
2022-08-23T15:25:50.424Z,16.20
2022-08-23T15:28:21.245Z,16.40
2022-08-23T15:30:51.524Z,15.50
2022-08-23T15:33:24.722Z,17.00
2022-08-23T15:35:56.777Z,17.20
2022-08-23T15:38:25.615Z,16.00
2022-08-23T15:40:54.930Z,18.80
2022-08-23T15:43:33.914Z,19.30
2022-08-23T15:46:08.007Z,17.40
2022-08-23T15:48:43.101Z,21.40
2022-08-23T15:51:11.873Z,18.40
2022-08-23T15:53:40.536Z,19.80
2022-08-23T15:56:11.969Z,19.20
2022-08-23T15:58:40.514Z,19.10
2022-08-23T16:01:09.984Z,19.70
2022-08-23T16:03:42.388Z,20.60
2022-08-23T16:06:13.254Z,21.80
2022-08-23T16:08:47.435Z,20.20
2022-08-23T16:11:16.472Z,24.00
2022-08-23T16:13:47.001Z,20.20
2022-08-23T16:16:26.417Z,25.90
2022-08-23T16:18:55.260Z,21.00
2022-08-23T16:21:25.321Z,21.20
2022-08-23T16:23:54.839Z,24.30
2022-08-23T16:26:34.788Z,20.60
2022-08-23T16:29:09.239Z,26.70
2022-08-23T16:31:39.893Z,25.00
2022-08-23T16:34:11.215Z,24.90
2022-08-23T16:36:43.620Z,25.80
2022-08-23T16:39:14.282Z,27.30
2022-08-23T16:41:42.762Z,25.80
2022-08-23T16:44:11.205Z,25.10
2022-08-23T16:46:47.501Z,25.60
2022-08-23T16:49:18.761Z,24.20
2022-08-23T16:51:47.619Z,26.00
2022-08-23T16:54:20.118Z,28.70
2022-08-23T16:56:48.308Z,26.40
2022-08-23T16:59:16.476Z,30.00
2022-08-23T17:01:51.165Z,26.70
2022-08-23T17:04:21.490Z,37.20
2022-08-23T17:06:50.969Z,28.90
2022-08-23T17:09:19.119Z,25.90
2022-08-23T17:11:47.580Z,30.40
2022-08-23T17:14:16.281Z,34.40
2022-08-23T17:16:44.466Z,28.40
2022-08-23T17:19:14.229Z,32.70
2022-08-23T17:21:43.162Z,31.10
2022-08-23T17:24:11.326Z,29.70
2022-08-23T17:26:39.838Z,35.10
2022-08-23T17:29:09.584Z,32.50
2022-08-23T17:31:38.078Z,42.20
2022-08-23T17:34:06.885Z,40.60
2022-08-23T17:36:47.531Z,33.20
2022-08-23T17:39:20.062Z,33.70
2022-08-23T17:41:48.845Z,35.60
2022-08-23T17:44:17.995Z,34.70
2022-08-23T17:46:47.106Z,34.50
2022-08-23T17:49:17.575Z,34.80
2022-08-23T17:51:45.823Z,34.10
2022-08-23T17:54:16.162Z,33.50
2022-08-23T17:56:54.495Z,39.00
2022-08-23T17:59:31.681Z,42.10
2022-08-23T18:02:00.156Z,47.10
2022-08-23T18:04:28.527Z,53.10
2022-08-23T18:06:56.838Z,53.30
2022-08-23T18:09:25.323Z,47.90
2022-08-23T18:11:54.309Z,49.00
2022-08-23T18:14:23.529Z,49.30
2022-08-23T18:16:51.912Z,60.40
2022-08-23T18:19:20.819Z,51.60
2022-08-23T18:21:51.702Z,55.10
2022-08-23T18:24:20.967Z,51.90
2022-08-23T18:27:08.366Z,57.70
2022-08-23T18:29:38.384Z,55.30
2022-08-23T18:32:10.669Z,56.20
2022-08-23T18:34:40.153Z,56.80
2022-08-23T18:37:08.346Z,60.20
2022-08-23T18:39:36.486Z,61.70
2022-08-23T18:42:05.788Z,61.40
2022-08-23T18:44:35.849Z,68.30
2022-08-23T18:47:04.550Z,57.70
2022-08-23T18:49:33.972Z,63.60
2022-08-23T18:52:03.861Z,68.10
2022-08-23T18:54:34.051Z,62.70
2022-08-23T18:57:04.382Z,66.70
2022-08-23T18:59:33.232Z,58.30
2022-08-23T19:02:01.649Z,57.20
2022-08-23T19:04:30.395Z,57.50
2022-08-23T19:06:58.601Z,65.50
2022-08-23T19:09:26.846Z,53.70
2022-08-23T19:11:55.270Z,66.20
2022-08-23T19:14:23.433Z,53.30
2022-08-23T19:16:51.626Z,52.10
2022-08-23T19:19:20.016Z,53.30
2022-08-23T19:21:50.286Z,54.70
2022-08-23T19:24:18.477Z,51.60
2022-08-23T19:26:47.818Z,60.70
2022-08-23T19:29:18.564Z,57.00
2022-08-23T19:31:48.365Z,57.30
2022-08-23T19:34:18.720Z,52.80
2022-08-23T19:36:51.770Z,58.70
2022-08-23T19:39:29.875Z,55.70
2022-08-23T19:41:58.372Z,52.60
2022-08-23T19:44:26.750Z,55.20
2022-08-23T19:46:56.288Z,56.60
2022-08-23T19:49:24.859Z,48.80
2022-08-23T19:51:53.456Z,50.30
2022-08-23T19:54:22.078Z,56.60
2022-08-23T19:56:54.907Z,56.30
2022-08-23T19:59:26.505Z,55.10
2022-08-23T20:01:55.913Z,57.60
2022-08-23T20:04:26.286Z,52.90
2022-08-23T20:06:55.299Z,51.10
2022-08-23T20:09:24.959Z,50.30
2022-08-23T20:11:53.489Z,52.70
2022-08-23T20:14:24.325Z,45.40
2022-08-23T20:16:54.356Z,51.40
2022-08-23T20:19:22.860Z,49.10
2022-08-23T20:21:51.273Z,50.50
2022-08-23T20:24:28.935Z,45.10
2022-08-23T20:27:08.525Z,48.40
2022-08-23T20:29:42.595Z,57.20
2022-08-23T20:32:11.224Z,52.10
2022-08-23T20:34:39.510Z,51.20
2022-08-23T20:37:11.501Z,58.40
2022-08-23T20:39:39.699Z,45.30
2022-08-23T20:42:08.134Z,50.40
2022-08-23T20:44:36.825Z,50.40
2022-08-23T20:47:05.338Z,46.80
2022-08-23T20:49:34.237Z,50.90
2022-08-23T20:52:03.138Z,49.30
2022-08-23T20:54:32.038Z,53.50
2022-08-23T20:57:00.416Z,49.40
2022-08-23T20:59:28.678Z,56.20
2022-08-23T21:01:56.887Z,55.10
2022-08-23T21:04:30.224Z,47.90
2022-08-23T21:06:58.779Z,53.30
2022-08-23T21:09:29.336Z,59.30
2022-08-23T21:11:58.417Z,54.00
2022-08-23T21:14:26.600Z,65.60
2022-08-23T21:16:54.933Z,61.40
2022-08-23T21:19:23.193Z,59.70
2022-08-23T21:21:51.335Z,49.00
2022-08-23T21:24:20.555Z,54.30
2022-08-23T21:26:48.918Z,56.30
2022-08-23T21:29:17.831Z,52.60
2022-08-23T21:31:46.100Z,55.30
2022-08-23T21:34:16.564Z,53.40
2022-08-23T21:36:44.749Z,62.10
2022-08-23T21:39:12.895Z,57.50
2022-08-23T21:41:44.500Z,63.20
2022-08-23T21:44:17.245Z,61.70
2022-08-23T21:46:46.752Z,62.30
2022-08-23T21:49:16.494Z,62.50
2022-08-23T21:51:45.559Z,56.20
2022-08-23T21:54:14.965Z,64.10
2022-08-23T21:56:43.126Z,61.70
2022-08-23T21:59:14.285Z,60.10
2022-08-23T22:01:43.578Z,63.30
2022-08-23T22:04:13.776Z,54.80
2022-08-23T22:06:44.704Z,63.80
2022-08-23T22:09:16.125Z,62.90
2022-08-23T22:11:46.542Z,57.90
2022-08-23T22:14:18.404Z,55.20
2022-08-23T22:16:47.005Z,60.40
2022-08-23T22:19:16.272Z,63.10
2022-08-23T22:21:46.498Z,67.30
2022-08-23T22:24:16.172Z,60.40
2022-08-23T22:26:44.773Z,64.70
2022-08-23T22:29:14.227Z,61.50
2022-08-23T22:31:42.642Z,62.40
2022-08-23T22:34:12.758Z,64.90
2022-08-23T22:36:42.059Z,64.20
2022-08-23T22:39:12.250Z,66.40
2022-08-23T22:41:40.853Z,65.80
2022-08-23T22:44:09.186Z,58.30
2022-08-23T22:46:37.433Z,60.00
2022-08-23T22:49:05.888Z,58.80
2022-08-23T22:51:35.774Z,74.30
2022-08-23T22:54:09.197Z,70.90
2022-08-23T22:56:41.984Z,62.10
2022-08-23T22:59:10.942Z,63.00
2022-08-23T23:01:44.395Z,68.60
2022-08-23T23:04:14.907Z,72.00
2022-08-23T23:06:43.300Z,58.60
2022-08-23T23:09:13.370Z,62.70
2022-08-23T23:11:42.709Z,69.20
2022-08-23T23:14:13.553Z,53.70
2022-08-23T23:16:43.077Z,60.00
2022-08-23T23:19:29.973Z,65.50
2022-08-23T23:21:59.010Z,80.40
2022-08-23T23:24:30.893Z,68.40
2022-08-23T23:27:00.435Z,53.90
2022-08-23T23:29:29.968Z,71.40
2022-08-23T23:31:59.072Z,71.90
2022-08-23T23:34:28.417Z,61.40
2022-08-23T23:36:57.991Z,62.50
2022-08-23T23:39:27.465Z,60.40
2022-08-23T23:41:55.905Z,63.30
2022-08-23T23:44:31.404Z,58.10
2022-08-23T23:47:03.297Z,56.60
2022-08-23T23:49:32.921Z,50.20
2022-08-23T23:52:04.769Z,74.40
2022-08-23T23:54:35.754Z,57.70
2022-08-23T23:57:06.101Z,55.70
2022-08-23T23:59:35.341Z,45.00
